createdAt,value
2023-04-02T00:00:31.293Z,14.00
2023-04-02T00:02:33.683Z,14.35
2023-04-02T00:04:38.151Z,14.75
2023-04-02T00:06:45.059Z,13.68
2023-04-02T00:08:49.011Z,14.10
2023-04-02T00:10:53.460Z,14.48
2023-04-02T00:13:04.400Z,15.20
2023-04-02T00:15:12.331Z,15.73
2023-04-02T00:17:14.520Z,14.73
2023-04-02T00:19:37.582Z,17.05
2023-04-02T00:21:43.239Z,16.90
2023-04-02T00:23:45.306Z,14.93
2023-04-02T00:27:49.736Z,14.05
2023-04-02T00:29:56.701Z,14.25
2023-04-02T00:31:59.985Z,16.38
2023-04-02T00:34:04.842Z,16.42
2023-04-02T00:36:08.094Z,16.05
2023-04-02T00:38:40.343Z,16.02
2023-04-02T00:40:42.861Z,16.10
2023-04-02T00:42:46.509Z,16.38
2023-04-02T00:44:49.596Z,17.48
2023-04-02T00:46:52.506Z,17.33
2023-04-02T00:49:04.373Z,17.05
2023-04-02T00:51:34.866Z,16.98
2023-04-02T00:53:37.551Z,16.27
2023-04-02T00:55:41.730Z,16.73
2023-04-02T00:57:45.013Z,16.42
2023-04-02T01:00:08.589Z,16.25
2023-04-02T01:02:17.706Z,15.65
2023-04-02T01:04:36.548Z,17.80
2023-04-02T01:06:39.288Z,16.63
2023-04-02T01:08:50.036Z,16.80
2023-04-02T01:10:51.836Z,16.35
2023-04-02T01:13:12.227Z,16.67
2023-04-02T01:15:16.763Z,16.42
2023-04-02T01:17:21.369Z,16.25
2023-04-02T01:19:58.650Z,17.05
2023-04-02T01:22:40.438Z,15.65
2023-04-02T01:24:44.057Z,17.38
2023-04-02T01:26:51.749Z,16.63
2023-04-02T01:28:56.348Z,17.33
2023-04-02T01:31:01.493Z,16.73
2023-04-02T01:33:04.110Z,17.90
2023-04-02T01:35:07.476Z,17.08
2023-04-02T01:37:46.908Z,16.45
2023-04-02T01:40:14.866Z,16.25
2023-04-02T01:42:26.040Z,18.20
2023-04-02T01:44:41.731Z,17.58
2023-04-02T01:46:48.219Z,16.30
2023-04-02T01:48:50.098Z,16.70
2023-04-02T01:50:55.478Z,16.65
2023-04-02T01:53:02.815Z,17.15
2023-04-02T01:55:05.549Z,17.80
2023-04-02T01:57:08.545Z,17.85
2023-04-02T01:59:11.693Z,17.67
2023-04-02T02:01:21.871Z,17.83
2023-04-02T02:03:23.832Z,16.85
2023-04-02T02:05:26.708Z,17.40
2023-04-02T02:07:29.199Z,18.20
2023-04-02T02:09:35.599Z,18.60
2023-04-02T02:11:37.599Z,17.52
2023-04-02T02:13:41.592Z,16.95
2023-04-02T02:15:44.673Z,18.10
2023-04-02T02:17:47.923Z,15.38
2023-04-02T02:19:56.928Z,16.45
2023-04-02T02:22:12.284Z,15.93
2023-04-02T02:24:32.248Z,15.85
2023-04-02T02:26:35.941Z,17.20
2023-04-02T02:28:42.192Z,15.90
2023-04-02T02:30:47.119Z,17.63
2023-04-02T02:33:03.891Z,17.40
2023-04-02T02:35:18.466Z,17.65
2023-04-02T02:37:27.135Z,18.67
2023-04-02T02:39:39.826Z,19.23
2023-04-02T02:41:44.394Z,18.58
2023-04-02T02:44:13.078Z,19.58
2023-04-02T02:46:18.462Z,20.05
2023-04-02T02:48:23.971Z,19.48
2023-04-02T02:50:32.166Z,19.42
2023-04-02T02:52:38.459Z,21.58
2023-04-02T02:55:02.347Z,22.98
2023-04-02T02:57:09.791Z,23.08
2023-04-02T02:59:15.056Z,25.08
2023-04-02T03:01:18.825Z,24.02
2023-04-02T03:03:24.858Z,22.90
2023-04-02T03:05:29.245Z,24.75
2023-04-02T03:07:32.016Z,26.25
2023-04-02T03:09:41.993Z,25.58
2023-04-02T03:12:03.791Z,24.67
2023-04-02T03:14:51.370Z,25.50
2023-04-02T03:17:01.160Z,26.85
2023-04-02T03:19:34.812Z,27.77
2023-04-02T03:21:42.877Z,27.40
2023-04-02T03:24:29.617Z,27.60
2023-04-02T03:26:38.178Z,27.88
2023-04-02T03:28:45.534Z,26.90
2023-04-02T03:30:58.368Z,27.20
2023-04-02T03:33:22.909Z,26.92
2023-04-02T03:36:06.416Z,26.55
2023-04-02T03:38:16.716Z,25.40
2023-04-02T03:40:31.179Z,26.48
2023-04-02T03:42:48.135Z,26.17
2023-04-02T03:44:59.032Z,24.67
2023-04-02T03:47:11.524Z,25.17
2023-04-02T03:49:25.923Z,26.40
2023-04-02T03:51:36.807Z,25.08
2023-04-02T03:53:39.082Z,23.63
2023-04-02T03:55:42.684Z,24.08
2023-04-02T03:57:54.253Z,22.90
2023-04-02T04:00:20.441Z,24.23
2023-04-02T04:03:00.098Z,23.00
2023-04-02T04:05:03.730Z,22.55
2023-04-02T04:07:20.445Z,22.88
2023-04-02T04:09:36.361Z,22.70
2023-04-02T04:11:45.765Z,23.60
2023-04-02T04:14:07.921Z,22.35
2023-04-02T04:16:19.095Z,23.15
2023-04-02T04:18:34.845Z,22.25
2023-04-02T04:20:46.077Z,22.77
2023-04-02T04:22:50.122Z,22.67
2023-04-02T04:24:51.998Z,23.95
2023-04-02T04:27:04.955Z,24.35
2023-04-02T04:29:25.049Z,24.48
2023-04-02T04:31:41.313Z,25.33
2023-04-02T04:33:47.289Z,25.77
2023-04-02T04:35:55.685Z,24.42
2023-04-02T04:38:04.113Z,25.10
2023-04-02T04:40:16.549Z,25.75
2023-04-02T04:42:25.845Z,23.33
2023-04-02T04:44:59.994Z,24.45
2023-04-02T04:47:15.581Z,22.70
2023-04-02T04:49:19.809Z,23.73
2023-04-02T04:51:29.656Z,23.92
2023-04-02T04:53:31.852Z,24.40
2023-04-02T04:55:44.519Z,23.23
2023-04-02T04:57:49.867Z,23.85
2023-04-02T05:00:07.191Z,23.70
2023-04-02T05:02:29.679Z,24.08
2023-04-02T05:06:43.374Z,22.10
2023-04-02T05:08:49.207Z,22.83
2023-04-02T05:10:56.997Z,22.65
2023-04-02T05:13:16.915Z,21.80
2023-04-02T05:15:33.463Z,21.52
2023-04-02T05:17:42.777Z,24.17
2023-04-02T05:20:02.924Z,24.35
2023-04-02T05:22:22.637Z,23.52
2023-04-02T05:24:39.774Z,21.75
2023-04-02T05:26:46.982Z,22.13
2023-04-02T05:28:59.728Z,21.65
2023-04-02T05:31:15.237Z,24.92
2023-04-02T05:33:25.652Z,22.60
2023-04-02T05:35:34.077Z,21.42
2023-04-02T05:37:39.592Z,22.88
2023-04-02T05:39:45.341Z,22.83
2023-04-02T05:41:47.699Z,22.58
2023-04-02T05:43:56.315Z,23.02
2023-04-02T05:46:02.475Z,21.88
2023-04-02T05:48:14.720Z,18.83
2023-04-02T05:52:36.268Z,18.83
2023-04-02T05:54:46.326Z,20.63
2023-04-02T05:56:54.992Z,19.52
2023-04-02T05:59:07.655Z,19.48
2023-04-02T06:01:22.171Z,17.85
2023-04-02T06:03:27.379Z,17.38
2023-04-02T06:05:37.050Z,16.13
2023-04-02T06:08:25.731Z,15.75
2023-04-02T06:10:34.996Z,15.88
2023-04-02T06:12:36.783Z,16.45
2023-04-02T06:14:38.742Z,14.73
2023-04-02T06:16:40.977Z,15.23
2023-04-02T06:18:43.706Z,15.02
2023-04-02T06:20:46.234Z,15.63
2023-04-02T06:23:00.600Z,15.73
2023-04-02T06:25:30.402Z,15.82
2023-04-02T06:27:33.928Z,16.83
2023-04-02T06:29:40.258Z,16.58
2023-04-02T06:31:50.132Z,19.40
2023-04-02T06:33:55.001Z,17.70
2023-04-02T06:35:58.194Z,18.33
2023-04-02T06:38:04.246Z,19.67
2023-04-02T06:40:28.028Z,18.25
2023-04-02T06:42:39.443Z,19.98
2023-04-02T06:44:41.551Z,19.70
2023-04-02T06:48:47.700Z,19.55
2023-04-02T06:51:07.279Z,20.70
2023-04-02T06:53:25.732Z,20.20
2023-04-02T06:55:56.678Z,19.42
2023-04-02T06:57:58.518Z,20.35
2023-04-02T07:00:01.016Z,21.38
2023-04-02T07:02:12.810Z,20.27
2023-04-02T07:04:15.005Z,20.63
2023-04-02T07:06:19.597Z,20.80
2023-04-02T07:08:21.510Z,19.85
2023-04-02T07:10:23.570Z,21.83
2023-04-02T07:14:27.743Z,19.75
2023-04-02T07:16:32.147Z,19.13
2023-04-02T07:18:34.462Z,17.83
2023-04-02T07:20:41.715Z,17.55
2023-04-02T07:22:43.586Z,17.27
2023-04-02T07:24:46.633Z,17.55
2023-04-02T07:26:48.464Z,17.50
2023-04-02T07:28:50.436Z,17.50
2023-04-02T07:30:52.829Z,19.83
2023-04-02T07:32:54.704Z,18.65
2023-04-02T07:34:56.623Z,17.67
2023-04-02T07:36:58.572Z,17.48
2023-04-02T07:39:01.970Z,17.50
2023-04-02T07:41:07.673Z,18.70
2023-04-02T07:43:10.061Z,15.65
2023-04-02T07:45:12.745Z,15.00
2023-04-02T07:47:14.629Z,13.63
2023-04-02T07:49:16.835Z,14.50
2023-04-02T07:51:22.804Z,13.15
2023-04-02T07:53:34.731Z,13.88
2023-04-02T07:55:37.023Z,12.25
2023-04-02T07:57:43.642Z,12.73
2023-04-02T07:59:47.451Z,12.00
2023-04-02T08:01:49.428Z,11.60
2023-04-02T08:05:58.389Z,12.55
2023-04-02T08:08:00.315Z,13.60
2023-04-02T08:10:02.889Z,13.13
2023-04-02T08:12:05.075Z,11.90
2023-04-02T08:14:06.980Z,13.50
2023-04-02T08:16:09.806Z,12.30
2023-04-02T08:18:12.280Z,12.60
2023-04-02T08:20:19.411Z,15.48
2023-04-02T08:22:21.264Z,14.13
2023-04-02T08:24:23.512Z,15.85
2023-04-02T08:26:26.288Z,15.70
2023-04-02T08:28:28.119Z,17.80
2023-04-02T08:30:29.971Z,18.33
2023-04-02T08:32:32.226Z,18.42
2023-04-02T08:34:34.100Z,21.08
2023-04-02T08:36:39.249Z,18.67
2023-04-02T08:38:41.164Z,18.17
2023-04-02T08:40:45.887Z,18.58
2023-04-02T08:43:02.791Z,19.60
2023-04-02T08:45:38.326Z,20.33
2023-04-02T08:47:41.206Z,18.80
2023-04-02T08:50:30.291Z,19.10
2023-04-02T08:52:37.283Z,18.05
2023-04-02T08:54:39.162Z,19.05
2023-04-02T08:56:47.263Z,18.70
2023-04-02T08:58:54.408Z,18.33
2023-04-02T09:00:57.411Z,18.65
2023-04-02T09:03:14.458Z,18.63
2023-04-02T09:05:26.871Z,19.70
2023-04-02T09:07:28.843Z,20.58
2023-04-02T09:09:36.080Z,17.98
2023-04-02T09:12:04.145Z,17.75
2023-04-02T09:14:15.997Z,18.73
2023-04-02T09:16:22.822Z,17.85
2023-04-02T09:18:27.430Z,19.45
2023-04-02T09:20:29.427Z,19.48
2023-04-02T09:22:33.574Z,19.23
2023-04-02T09:24:37.793Z,17.58
2023-04-02T09:26:39.713Z,18.27
2023-04-02T09:28:42.182Z,17.25
2023-04-02T09:31:18.160Z,19.77
2023-04-02T09:33:20.096Z,19.70
2023-04-02T09:35:27.267Z,18.60
2023-04-02T09:37:29.568Z,17.90
2023-04-02T09:39:31.403Z,17.38
2023-04-02T09:41:37.065Z,15.90
2023-04-02T09:43:39.539Z,17.00
2023-04-02T09:45:42.932Z,17.13
2023-04-02T09:47:45.193Z,17.23
2023-04-02T09:49:47.054Z,15.10
2023-04-02T09:52:08.677Z,15.25
2023-04-02T09:54:16.500Z,15.57
2023-04-02T09:56:24.284Z,15.68
2023-04-02T09:58:26.138Z,13.93
2023-04-02T10:00:32.068Z,13.60
2023-04-02T10:02:36.835Z,11.88
2023-04-02T10:04:45.426Z,11.32
2023-04-02T10:06:53.451Z,12.65
2023-04-02T10:08:55.440Z,11.68
2023-04-02T10:11:01.839Z,10.88
2023-04-02T10:13:09.282Z,13.95
2023-04-02T10:15:19.284Z,11.13
2023-04-02T10:17:27.499Z,11.63
2023-04-02T10:19:36.333Z,11.77
2023-04-02T10:21:40.270Z,10.95
2023-04-02T10:23:42.283Z,10.30
2023-04-02T10:25:55.085Z,10.45
2023-04-02T10:28:00.004Z,9.38
2023-04-02T10:30:05.360Z,9.25
2023-04-02T10:32:41.583Z,8.45
2023-04-02T10:35:01.132Z,9.23
2023-04-02T10:37:24.290Z,9.43
2023-04-02T10:39:37.613Z,8.45
2023-04-02T10:42:00.143Z,8.40
2023-04-02T10:46:58.913Z,6.72
2023-04-02T10:49:16.923Z,7.22
2023-04-02T10:51:37.462Z,7.00
2023-04-02T10:53:48.628Z,8.95
2023-04-02T10:56:03.453Z,8.82
2023-04-02T10:58:16.694Z,8.18
2023-04-02T11:00:27.934Z,8.52
2023-04-02T11:02:52.426Z,8.30
2023-04-02T11:04:57.509Z,9.32
2023-04-02T11:07:14.288Z,8.88
2023-04-02T11:09:24.860Z,8.98
2023-04-02T11:11:48.777Z,9.50
2023-04-02T11:14:20.027Z,10.90
2023-04-02T11:16:22.403Z,11.02
2023-04-02T11:18:38.897Z,9.93
2023-04-02T11:20:59.938Z,9.35
2023-04-02T11:23:21.259Z,10.00
2023-04-02T11:25:23.946Z,9.98
2023-04-02T11:27:31.644Z,9.65
2023-04-02T11:29:36.460Z,10.27
2023-04-02T11:31:38.698Z,10.27
2023-04-02T11:33:46.149Z,10.00
2023-04-02T11:35:49.238Z,9.77
2023-04-02T11:37:51.680Z,9.88
2023-04-02T11:39:59.299Z,9.65
2023-04-02T11:42:21.268Z,10.00
2023-04-02T11:44:24.776Z,10.70
2023-04-02T11:46:29.398Z,9.65
2023-04-02T11:48:35.986Z,10.18
2023-04-02T11:50:39.391Z,9.88
2023-04-02T11:52:47.317Z,10.05
2023-04-02T11:55:05.762Z,9.23
2023-04-02T11:57:36.309Z,8.15
2023-04-02T12:00:13.720Z,8.10
2023-04-02T12:02:32.996Z,6.80
2023-04-02T12:05:04.359Z,6.78
2023-04-02T12:07:35.022Z,8.13
2023-04-02T12:09:57.968Z,7.63
2023-04-02T12:12:15.627Z,8.55
2023-04-02T12:14:35.656Z,8.85
2023-04-02T12:16:37.988Z,8.77
2023-04-02T12:18:48.767Z,9.15
2023-04-02T12:20:53.483Z,9.32
2023-04-02T12:22:57.583Z,8.63
2023-04-02T12:25:06.060Z,9.75
2023-04-02T12:27:17.450Z,8.82
2023-04-02T12:29:24.400Z,8.67
2023-04-02T12:31:27.762Z,8.00
2023-04-02T12:33:38.385Z,8.00
2023-04-02T12:35:42.680Z,9.82
2023-04-02T12:37:44.583Z,9.00
2023-04-02T12:39:54.271Z,9.50
2023-04-02T12:41:57.258Z,9.57
2023-04-02T12:44:11.662Z,8.30
2023-04-02T12:46:15.196Z,8.07
2023-04-02T12:48:17.200Z,8.60
2023-04-02T12:50:21.182Z,8.00
2023-04-02T12:52:28.748Z,7.55
2023-04-02T12:54:36.567Z,7.90
2023-04-02T12:56:38.406Z,7.97
2023-04-02T12:58:43.046Z,8.43
2023-04-02T13:00:44.997Z,9.98
2023-04-02T13:02:50.693Z,14.60
2023-04-02T13:04:56.030Z,14.40
2023-04-02T13:06:58.534Z,15.13
2023-04-02T13:09:01.846Z,14.43
2023-04-02T13:11:06.078Z,10.88
2023-04-02T13:13:16.975Z,10.25
2023-04-02T13:15:28.324Z,10.07
2023-04-02T13:18:05.117Z,11.38
2023-04-02T13:20:31.310Z,11.40
2023-04-02T13:22:33.146Z,10.80
2023-04-02T13:24:35.032Z,8.77
2023-04-02T13:26:36.957Z,10.02
2023-04-02T13:28:39.081Z,9.70
2023-04-02T13:32:43.033Z,10.27
2023-04-02T13:34:44.916Z,10.45
2023-04-02T13:36:47.343Z,10.23
2023-04-02T13:38:49.192Z,9.55
2023-04-02T13:40:51.838Z,9.85
2023-04-02T13:42:53.775Z,9.52
2023-04-02T13:44:55.939Z,9.85
2023-04-02T13:46:58.612Z,10.48
2023-04-02T13:49:01.191Z,10.35
2023-04-02T13:51:03.189Z,12.48
2023-04-02T13:53:10.177Z,12.10
2023-04-02T13:55:13.940Z,11.80
2023-04-02T13:57:16.004Z,11.52
2023-04-02T14:01:23.076Z,10.00
2023-04-02T14:03:25.006Z,9.82
2023-04-02T14:05:53.734Z,10.27
2023-04-02T14:08:08.970Z,11.65
2023-04-02T14:10:35.290Z,11.27
2023-04-02T14:12:49.195Z,11.10
2023-04-02T14:15:09.683Z,11.68
2023-04-02T14:17:33.623Z,13.00
2023-04-02T14:19:54.056Z,12.73
2023-04-02T14:22:10.852Z,10.55
2023-04-02T14:24:27.658Z,11.10
2023-04-02T14:26:41.746Z,9.98
2023-04-02T14:28:57.589Z,10.13
2023-04-02T14:31:41.282Z,10.60
2023-04-02T14:33:55.421Z,10.95
2023-04-02T14:36:07.264Z,9.60
2023-04-02T14:38:27.212Z,9.60
2023-04-02T14:40:37.142Z,10.05
2023-04-02T14:43:11.698Z,9.10
2023-04-02T14:45:22.353Z,10.27
2023-04-02T14:47:46.464Z,8.50
2023-04-02T14:49:54.733Z,7.93
2023-04-02T14:52:04.638Z,7.13
2023-04-02T14:54:28.430Z,7.57
2023-04-02T14:56:37.868Z,8.18
2023-04-02T14:58:46.796Z,9.63
2023-04-02T15:01:05.837Z,9.20
2023-04-02T15:03:43.959Z,8.65
2023-04-02T15:05:53.919Z,6.07
2023-04-02T15:08:04.895Z,7.88
2023-04-02T15:10:21.829Z,6.68
2023-04-02T15:12:28.798Z,7.35
2023-04-02T15:14:48.818Z,8.23
2023-04-02T15:16:51.173Z,7.13
2023-04-02T15:18:57.099Z,6.50
2023-04-02T15:21:19.988Z,6.30
2023-04-02T15:23:33.581Z,6.22
2023-04-02T15:25:48.271Z,5.78
2023-04-02T15:27:50.163Z,7.47
2023-04-02T15:30:03.316Z,7.80
2023-04-02T15:32:18.423Z,7.28
2023-04-02T15:34:39.323Z,6.70
2023-04-02T15:36:51.986Z,7.90
2023-04-02T15:39:05.262Z,8.32
2023-04-02T15:41:26.730Z,9.80
2023-04-02T15:44:00.968Z,10.50
2023-04-02T15:46:23.176Z,10.40
2023-04-02T15:50:50.428Z,7.82
2023-04-02T15:53:09.303Z,7.68
2023-04-02T15:55:11.152Z,9.68
2023-04-02T15:57:58.428Z,9.48
2023-04-02T16:00:23.841Z,9.45
2023-04-02T16:02:25.875Z,8.05
2023-04-02T16:07:01.734Z,12.27
2023-04-02T16:09:27.348Z,12.90
2023-04-02T16:11:29.461Z,11.45
2023-04-02T16:15:42.494Z,8.65
2023-04-02T16:17:48.689Z,8.93
2023-04-02T16:20:19.991Z,8.70
2023-04-02T16:22:29.081Z,10.27
2023-04-02T16:24:31.260Z,9.88
2023-04-02T16:26:58.069Z,11.88
2023-04-02T16:29:14.823Z,14.30
2023-04-02T16:31:20.953Z,11.95
2023-04-02T16:33:39.662Z,10.25
2023-04-02T16:36:15.837Z,11.07
2023-04-02T16:38:39.555Z,13.15
2023-04-02T16:41:13.393Z,13.07
2023-04-02T16:43:37.406Z,12.55
2023-04-02T16:46:03.283Z,11.82
2023-04-02T16:48:46.672Z,11.13
2023-04-02T16:51:10.941Z,10.88
2023-04-02T16:53:58.449Z,11.02
2023-04-02T16:56:32.914Z,8.82
2023-04-02T16:59:02.837Z,9.05
2023-04-02T17:01:16.323Z,10.02
2023-04-02T17:03:45.352Z,9.52
2023-04-02T17:06:11.150Z,9.27
2023-04-02T17:08:22.977Z,9.88
2023-04-02T17:10:25.011Z,10.35
2023-04-02T17:14:52.677Z,9.45
2023-04-02T17:17:04.058Z,8.82
2023-04-02T17:19:12.861Z,7.40
2023-04-02T17:21:19.490Z,7.50
2023-04-02T17:23:21.662Z,8.02
2023-04-02T17:25:47.530Z,7.45
2023-04-02T17:27:52.960Z,11.13
2023-04-02T17:30:04.119Z,8.35
2023-04-02T17:32:24.384Z,8.68
2023-04-02T17:34:26.506Z,9.80
2023-04-02T17:38:55.034Z,9.20
2023-04-02T17:41:11.989Z,9.88
2023-04-02T17:43:26.440Z,9.50
2023-04-02T17:45:52.119Z,10.27
2023-04-02T17:48:19.572Z,9.30
2023-04-02T17:51:03.336Z,11.52
2023-04-02T17:53:22.749Z,11.43
2023-04-02T17:55:40.529Z,10.52
2023-04-02T17:58:19.337Z,17.02
2023-04-02T18:00:52.353Z,18.20
2023-04-02T18:03:18.977Z,12.65
2023-04-02T18:05:31.105Z,13.00
2023-04-02T18:07:35.677Z,12.93
2023-04-02T18:09:48.031Z,13.75
2023-04-02T18:14:04.472Z,13.32
2023-04-02T18:16:12.242Z,15.55
2023-04-02T18:18:30.796Z,16.27
2023-04-02T18:20:39.289Z,16.63
2023-04-02T18:22:49.627Z,16.60
2023-04-02T18:25:16.436Z,14.90
2023-04-02T18:28:05.989Z,15.63
2023-04-02T18:30:13.903Z,16.30
2023-04-02T18:32:52.641Z,14.85
2023-04-02T18:35:20.290Z,14.98
2023-04-02T18:37:59.479Z,15.75
2023-04-02T18:40:04.513Z,15.60
2023-04-02T18:42:27.687Z,15.82
2023-04-02T18:44:54.904Z,16.15
2023-04-02T18:47:11.609Z,15.50
2023-04-02T18:49:36.994Z,16.77
2023-04-02T18:51:40.187Z,15.60
2023-04-02T18:53:43.369Z,14.82
2023-04-02T18:55:56.547Z,16.52
2023-04-02T18:58:17.861Z,13.55
2023-04-02T19:00:32.851Z,16.08
2023-04-02T19:02:42.969Z,16.13
2023-04-02T19:04:58.404Z,17.02
2023-04-02T19:07:07.088Z,16.23
2023-04-02T19:09:18.881Z,18.70
2023-04-02T19:11:29.656Z,16.77
2023-04-02T19:13:32.036Z,17.48
2023-04-02T19:15:41.952Z,16.77
2023-04-02T19:17:51.305Z,15.38
2023-04-02T19:20:27.594Z,15.90
2023-04-02T19:22:49.710Z,16.98
2023-04-02T19:25:17.739Z,17.50
2023-04-02T19:28:02.042Z,17.77
2023-04-02T19:30:40.572Z,16.38
2023-04-02T19:33:15.125Z,17.48
2023-04-02T19:35:46.639Z,15.43
2023-04-02T19:38:27.552Z,16.48
2023-04-02T19:40:44.741Z,15.70
2023-04-02T19:42:52.248Z,14.93
2023-04-02T19:44:55.026Z,15.48
2023-04-02T19:46:57.730Z,13.82
2023-04-02T19:49:03.614Z,13.70
2023-04-02T19:51:06.802Z,13.93
2023-04-02T19:53:08.818Z,14.43
2023-04-02T19:57:15.823Z,14.73
2023-04-02T19:59:18.895Z,14.75
2023-04-02T20:01:21.125Z,15.30
2023-04-02T20:05:25.185Z,14.75
2023-04-02T20:07:27.204Z,13.55
2023-04-02T20:09:29.916Z,16.67
2023-04-02T20:11:31.781Z,16.45
2023-04-02T20:13:34.856Z,17.35
2023-04-02T20:15:37.153Z,15.38
2023-04-02T20:17:39.253Z,14.60
2023-04-02T20:19:41.356Z,17.45
2023-04-02T20:23:45.339Z,14.95
2023-04-02T20:27:50.144Z,16.45
2023-04-02T20:29:52.045Z,14.73
2023-04-02T20:31:54.170Z,14.60
2023-04-02T20:33:57.484Z,13.82
2023-04-02T20:36:05.004Z,13.90
2023-04-02T20:38:08.293Z,13.45
2023-04-02T20:40:10.821Z,13.40
2023-04-02T20:42:14.154Z,13.75
2023-04-02T20:44:16.255Z,13.43
2023-04-02T20:48:20.061Z,12.95
2023-04-02T20:50:21.987Z,12.52
2023-04-02T20:52:24.362Z,13.07
2023-04-02T20:54:27.274Z,13.35
2023-04-02T20:56:29.444Z,12.77
2023-04-02T20:58:31.733Z,13.30
2023-04-02T21:00:34.000Z,14.93
2023-04-02T21:02:36.516Z,14.98
2023-04-02T21:04:38.551Z,16.15
2023-04-02T21:06:41.289Z,15.63
2023-04-02T21:08:44.137Z,19.55
2023-04-02T21:10:46.282Z,18.85
2023-04-02T21:14:56.796Z,19.20
2023-04-02T21:16:58.754Z,18.33
2023-04-02T21:19:04.418Z,19.80
2023-04-02T21:21:07.220Z,17.50
2023-04-02T21:23:09.144Z,17.90
2023-04-02T21:25:11.089Z,17.30
2023-04-02T21:27:13.224Z,18.55
2023-04-02T21:31:23.060Z,17.48
2023-04-02T21:33:24.914Z,16.92
2023-04-02T21:35:26.836Z,17.92
2023-04-02T21:37:28.794Z,18.88
2023-04-02T21:39:30.907Z,16.52
2023-04-02T21:43:38.583Z,14.88
2023-04-02T21:45:40.605Z,15.35
2023-04-02T21:49:44.425Z,15.57
2023-04-02T21:51:47.322Z,17.35
2023-04-02T21:53:50.003Z,14.35
2023-04-02T21:56:01.170Z,18.05
2023-04-02T21:58:03.351Z,17.10
2023-04-02T22:00:09.216Z,17.23
2023-04-02T22:02:11.910Z,16.77
2023-04-02T22:04:25.307Z,16.40
2023-04-02T22:06:29.509Z,16.40
2023-04-02T22:08:31.603Z,16.25
2023-04-02T22:12:37.728Z,17.10
2023-04-02T22:16:42.215Z,16.45
2023-04-02T22:18:45.899Z,16.95
2023-04-02T22:20:47.745Z,16.65
2023-04-02T22:22:51.049Z,19.10
2023-04-02T22:24:53.004Z,18.17
2023-04-02T22:26:55.035Z,18.63
2023-04-02T22:31:30.533Z,18.95
2023-04-02T22:33:33.120Z,18.30
2023-04-02T22:35:35.172Z,18.70
2023-04-02T22:39:38.807Z,20.00
2023-04-02T22:41:41.016Z,20.05
2023-04-02T22:43:44.265Z,17.83
2023-04-02T22:45:47.420Z,19.02
2023-04-02T22:47:50.848Z,18.08
2023-04-02T22:49:52.738Z,20.70
2023-04-02T22:51:54.702Z,18.50
2023-04-02T22:53:57.443Z,19.85
2023-04-02T22:56:21.652Z,18.50
2023-04-02T22:58:23.943Z,19.30
2023-04-02T23:00:25.767Z,19.23
2023-04-02T23:02:27.833Z,19.77
2023-04-02T23:06:31.984Z,19.67
2023-04-02T23:08:34.795Z,20.88
2023-04-02T23:10:37.013Z,17.92
2023-04-02T23:12:39.004Z,19.08
2023-04-02T23:14:40.873Z,21.15
2023-04-02T23:16:42.782Z,19.63
2023-04-02T23:18:48.630Z,19.17
2023-04-02T23:20:50.644Z,19.33
2023-04-02T23:22:52.476Z,18.73
2023-04-02T23:24:54.596Z,19.17
2023-04-02T23:28:59.313Z,19.45
2023-04-02T23:31:03.176Z,16.33
2023-04-02T23:33:05.168Z,18.73
2023-04-02T23:35:07.168Z,18.00
2023-04-02T23:37:09.364Z,18.20
2023-04-02T23:39:12.983Z,18.17
2023-04-02T23:41:16.924Z,18.23
2023-04-02T23:43:19.082Z,19.30
2023-04-02T23:45:21.084Z,17.85
2023-04-02T23:47:22.918Z,18.40
2023-04-02T23:49:24.771Z,18.00
2023-04-02T23:51:27.299Z,19.00
2023-04-02T23:53:29.145Z,19.30
2023-04-02T23:55:31.105Z,19.65
2023-04-02T23:57:33.032Z,18.08
2023-04-02T23:59:34.967Z,17.63
